createdAt,value
2022-12-01T00:03:36.622Z,4.25
2022-12-01T00:08:40.412Z,4.59
2022-12-01T00:13:42.353Z,2.95
2022-12-01T00:18:44.414Z,3.95
2022-12-01T00:23:48.200Z,4.34
2022-12-01T00:28:52.190Z,3.48
2022-12-01T00:33:55.072Z,3.86
2022-12-01T00:38:57.402Z,2.23
2022-12-01T00:43:59.310Z,4.49
2022-12-01T00:49:01.244Z,3.90
2022-12-01T00:54:03.223Z,4.65
2022-12-01T00:59:07.212Z,4.65
2022-12-01T01:04:09.193Z,5.57
2022-12-01T01:09:12.474Z,5.47
2022-12-01T01:14:14.677Z,5.49
2022-12-01T01:19:17.509Z,5.81
2022-12-01T01:24:20.446Z,5.81
2022-12-01T01:29:22.446Z,4.60
2022-12-01T01:34:24.397Z,4.75
2022-12-01T01:39:26.340Z,5.21
2022-12-01T01:44:49.170Z,5.34
2022-12-01T01:49:52.231Z,5.01
2022-12-01T01:54:55.766Z,3.24
2022-12-01T02:00:11.332Z,4.45
2022-12-01T02:05:21.134Z,4.52
2022-12-01T02:10:43.594Z,5.29
2022-12-01T02:15:57.650Z,5.46
2022-12-01T02:21:14.141Z,3.61
2022-12-01T02:26:43.942Z,4.61
2022-12-01T02:31:54.935Z,2.28
2022-12-01T02:37:08.532Z,3.12
2022-12-01T02:42:48.660Z,4.84
2022-12-01T02:47:54.987Z,4.67
2022-12-01T02:52:57.560Z,2.96
2022-12-01T02:57:59.583Z,4.57
2022-12-01T03:03:40.999Z,3.24
2022-12-01T03:09:14.238Z,4.20
2022-12-01T03:14:45.483Z,3.86
2022-12-01T03:19:56.190Z,4.69
2022-12-01T03:25:02.245Z,5.22
2022-12-01T03:30:05.172Z,5.52
2022-12-01T03:35:14.523Z,4.75
2022-12-01T03:40:21.639Z,4.85
2022-12-01T03:45:51.336Z,4.74
2022-12-01T03:51:18.234Z,4.60
2022-12-01T03:56:24.047Z,4.50
2022-12-01T04:01:32.767Z,4.62
2022-12-01T04:06:34.927Z,3.15
2022-12-01T04:11:55.434Z,4.40
2022-12-01T04:16:57.369Z,4.00
2022-12-01T04:21:59.264Z,4.44
2022-12-01T04:27:01.231Z,3.99
2022-12-01T04:32:03.335Z,3.28
2022-12-01T04:37:06.618Z,1.28
2022-12-01T04:42:09.539Z,1.41
2022-12-01T04:47:11.489Z,1.88
2022-12-01T04:52:13.478Z,0.68
2022-12-01T04:57:15.445Z,2.02
2022-12-01T05:02:17.498Z,2.76
2022-12-01T05:07:19.555Z,2.87
2022-12-01T05:12:21.634Z,2.52
2022-12-01T05:17:23.714Z,1.41
2022-12-01T05:22:56.865Z,0.95
2022-12-01T05:27:47.776Z,2.46
2022-12-01T05:32:50.527Z,2.59
2022-12-01T05:37:52.711Z,1.78
2022-12-01T05:42:54.781Z,2.18
2022-12-01T05:47:58.661Z,3.02
2022-12-01T05:53:00.726Z,4.11
2022-12-01T05:58:03.287Z,3.49
2022-12-01T06:03:05.595Z,3.38
2022-12-01T06:08:08.265Z,3.94
2022-12-01T06:13:10.343Z,3.84
2022-12-01T06:18:12.274Z,4.31
2022-12-01T06:23:14.231Z,3.95
2022-12-01T06:28:17.036Z,4.04
2022-12-01T06:33:19.078Z,4.04
2022-12-01T06:38:21.055Z,3.95
2022-12-01T06:43:23.033Z,3.57
2022-12-01T06:48:25.055Z,3.08
2022-12-01T06:53:28.545Z,4.48
2022-12-01T06:58:31.077Z,4.90
2022-12-01T07:03:33.342Z,4.82
2022-12-01T07:08:35.280Z,2.75
2022-12-01T07:13:37.191Z,2.85
2022-12-01T07:18:40.607Z,3.93
2022-12-01T07:23:43.318Z,3.81
2022-12-01T07:28:45.615Z,3.98
2022-12-01T07:33:47.668Z,4.68
2022-12-01T07:38:49.733Z,4.55
2022-12-01T07:43:51.677Z,4.70
2022-12-01T07:48:55.046Z,4.46
2022-12-01T07:54:01.447Z,4.04
2022-12-01T07:59:03.489Z,4.98
2022-12-01T08:04:05.416Z,4.90
2022-12-01T08:09:07.386Z,0.87
2022-12-01T08:14:09.350Z,-0.83
2022-12-01T08:19:11.673Z,2.00
2022-12-01T08:24:13.622Z,2.83
2022-12-01T08:29:19.916Z,4.19
2022-12-01T08:34:22.540Z,1.16
2022-12-01T08:39:24.479Z,0.85
2022-12-01T08:44:26.450Z,1.55
2022-12-01T08:49:28.384Z,3.35
2022-12-01T08:54:30.280Z,3.30
2022-12-01T08:59:32.199Z,1.54
2022-12-01T09:04:34.184Z,-0.83
2022-12-01T09:09:37.303Z,0.66
2022-12-01T09:14:41.284Z,-0.01
2022-12-01T09:19:44.241Z,-1.04
2022-12-01T09:24:46.176Z,0.08
2022-12-01T09:29:48.484Z,0.12
2022-12-01T09:34:50.739Z,0.75
2022-12-01T09:39:52.659Z,0.66
2022-12-01T09:44:57.347Z,1.56
2022-12-01T09:50:02.030Z,2.80
2022-12-01T09:55:11.884Z,3.02
2022-12-01T10:00:15.838Z,3.01
2022-12-01T10:05:23.872Z,0.15
2022-12-01T10:10:36.436Z,-0.02
2022-12-01T10:15:45.990Z,0.83
2022-12-01T10:21:12.212Z,1.98
2022-12-01T10:26:19.640Z,2.88
2022-12-01T10:31:31.186Z,2.41
2022-12-01T10:36:34.766Z,2.49
2022-12-01T10:41:39.401Z,3.70
2022-12-01T10:46:55.162Z,2.29
2022-12-01T10:51:58.454Z,1.88
2022-12-01T10:57:02.024Z,2.57
2022-12-01T11:02:06.453Z,1.97
2022-12-01T11:07:16.802Z,1.40
2022-12-01T11:12:20.582Z,3.25
2022-12-01T11:17:22.496Z,0.66
2022-12-01T11:22:31.189Z,1.94
2022-12-01T11:27:57.654Z,2.41
2022-12-01T11:33:03.235Z,3.75
2022-12-01T11:38:29.225Z,3.81
2022-12-01T11:43:36.259Z,3.95
2022-12-01T11:48:39.139Z,2.91
2022-12-01T11:53:43.177Z,4.02
2022-12-01T11:58:47.907Z,3.89
2022-12-01T12:04:00.801Z,2.21
2022-12-01T12:15:25.471Z,0.36
2022-12-01T12:20:57.951Z,0.69
2022-12-01T12:26:06.272Z,0.11
2022-12-01T12:31:17.117Z,0.60
2022-12-01T12:36:25.878Z,2.72
2022-12-01T12:41:47.403Z,3.03
2022-12-01T12:47:09.536Z,4.48
2022-12-01T12:52:24.077Z,0.52
2022-12-01T12:57:33.848Z,2.12
2022-12-01T13:02:50.749Z,0.25
2022-12-01T13:08:06.234Z,-0.49
2022-12-01T13:13:27.901Z,-1.26
2022-12-01T13:18:43.913Z,-0.83
2022-12-01T13:23:48.445Z,1.05
2022-12-01T13:28:57.276Z,1.91
2022-12-01T13:34:02.639Z,1.18
2022-12-01T13:39:15.432Z,3.66
2022-12-01T13:44:25.212Z,4.16
2022-12-01T13:49:36.918Z,3.22
2022-12-01T13:54:38.938Z,3.94
2022-12-01T14:00:03.299Z,4.20
2022-12-01T14:05:23.041Z,2.00
2022-12-01T14:10:24.916Z,0.97
2022-12-01T14:15:40.282Z,2.99
2022-12-01T14:20:48.555Z,0.86
2022-12-01T14:26:05.419Z,2.23
2022-12-01T14:31:07.509Z,3.51
2022-12-01T14:36:24.543Z,2.70
2022-12-01T14:41:33.525Z,1.99
2022-12-01T14:46:42.897Z,1.74
2022-12-01T14:51:49.110Z,1.69
2022-12-01T14:56:53.800Z,3.83
2022-12-01T15:02:06.828Z,3.32
2022-12-01T15:07:08.800Z,4.44
2022-12-01T15:12:26.347Z,3.22
2022-12-01T15:17:31.301Z,4.83
2022-12-01T15:22:34.063Z,4.01
2022-12-01T15:27:36.063Z,4.90
2022-12-01T15:32:38.854Z,4.03
2022-12-01T15:37:44.297Z,5.05
2022-12-01T15:43:00.822Z,3.23
2022-12-01T15:48:15.899Z,3.91
2022-12-01T15:53:25.175Z,2.44
2022-12-01T15:58:33.164Z,3.93
2022-12-01T16:03:46.930Z,3.14
2022-12-01T16:09:07.689Z,3.64
2022-12-01T16:14:24.795Z,3.69
2022-12-01T16:19:34.034Z,4.85
2022-12-01T16:24:42.966Z,3.02
2022-12-01T16:30:06.373Z,3.81
2022-12-01T16:35:32.133Z,4.42
2022-12-01T16:40:34.042Z,4.79
2022-12-01T16:45:35.929Z,5.21
2022-12-01T16:50:39.324Z,4.35
2022-12-01T16:55:49.818Z,4.96
2022-12-01T17:00:54.930Z,4.76
2022-12-01T17:05:59.972Z,5.04
2022-12-01T17:11:06.979Z,5.22
2022-12-01T17:16:13.965Z,4.65
2022-12-01T17:21:20.215Z,4.47
2022-12-01T17:26:23.196Z,2.83
2022-12-01T17:31:25.323Z,3.65
2022-12-01T17:36:27.751Z,2.82
2022-12-01T17:41:35.867Z,4.11
2022-12-01T17:46:38.665Z,4.46
2022-12-01T17:51:41.819Z,4.14
2022-12-01T17:56:43.946Z,4.54
2022-12-01T18:01:46.147Z,4.74
2022-12-01T18:06:53.777Z,4.10
2022-12-01T18:11:57.147Z,3.94
2022-12-01T18:16:59.177Z,4.43
2022-12-01T18:22:01.230Z,5.15
2022-12-01T18:27:03.322Z,3.06
2022-12-01T18:32:05.354Z,3.84
2022-12-01T18:37:07.313Z,4.52
2022-12-01T18:42:09.296Z,5.10
2022-12-01T18:47:11.378Z,4.33
2022-12-01T18:52:13.530Z,4.90
2022-12-01T18:57:15.512Z,4.79
2022-12-01T19:02:17.643Z,5.06
2022-12-01T19:07:26.605Z,4.15
2022-12-01T19:12:34.157Z,3.25
2022-12-01T19:17:39.926Z,3.89
2022-12-01T19:22:42.171Z,3.70
2022-12-01T19:27:44.439Z,3.99
2022-12-01T19:32:48.443Z,3.80
2022-12-01T19:37:52.676Z,3.77
2022-12-01T19:42:55.604Z,3.70
2022-12-01T19:47:57.840Z,4.15
2022-12-01T19:53:01.279Z,2.63
2022-12-01T19:58:06.347Z,3.41
2022-12-01T20:03:10.192Z,3.88
2022-12-01T20:08:13.917Z,3.45
2022-12-01T20:13:15.889Z,4.73
2022-12-01T20:18:17.848Z,4.77
2022-12-01T20:23:19.803Z,5.18
2022-12-01T20:28:21.768Z,5.07
2022-12-01T20:33:24.798Z,2.03
2022-12-01T20:38:27.870Z,1.79
2022-12-01T20:43:30.071Z,4.19
2022-12-01T20:48:33.202Z,3.74
2022-12-01T20:53:36.099Z,3.93
2022-12-01T20:58:39.818Z,4.02
2022-12-01T21:03:43.632Z,3.57
2022-12-01T21:08:47.490Z,2.55
2022-12-01T21:13:50.446Z,3.56
2022-12-01T21:18:54.974Z,3.89
2022-12-01T21:24:20.124Z,4.72
2022-12-01T21:29:26.611Z,3.81
2022-12-01T21:34:29.282Z,2.24
2022-12-01T21:39:31.234Z,3.88
2022-12-01T21:44:37.710Z,4.36
2022-12-01T21:49:39.866Z,4.56
2022-12-01T21:54:41.882Z,4.67
2022-12-01T21:59:43.761Z,3.54
2022-12-01T22:04:45.678Z,4.62
2022-12-01T22:09:48.332Z,4.72
2022-12-01T22:14:50.935Z,4.10
2022-12-01T22:20:15.050Z,4.83
2022-12-01T22:25:26.356Z,4.18
2022-12-01T22:30:28.292Z,4.24
2022-12-01T22:35:38.893Z,5.10
2022-12-01T22:41:15.978Z,4.76
2022-12-01T22:46:22.952Z,4.50
2022-12-01T22:51:24.919Z,4.61
2022-12-01T22:56:26.910Z,5.01
2022-12-01T23:01:33.017Z,4.74
2022-12-01T23:06:57.269Z,3.43
2022-12-01T23:12:05.187Z,3.19
2022-12-01T23:17:31.386Z,4.54
2022-12-01T23:22:33.322Z,4.68
2022-12-01T23:27:35.504Z,4.53
2022-12-01T23:32:37.936Z,5.01
2022-12-01T23:37:42.438Z,4.27
2022-12-01T23:42:44.368Z,5.21
2022-12-01T23:47:46.507Z,5.57
2022-12-01T23:52:48.467Z,5.33
2022-12-01T23:57:52.362Z,5.86
